SECU/CUE METAR and TAF weather

Enter ICAO airport designator
Station Type Date Time Source
SECU METAR 2019/04/25 02:00 UTC NOAA

SECU 250200Z 07003KT 9999 -RA OVC030 14/13 Q1028


Station Type Date Time Source
SECU Decoded METAR 2019/04/25 02:00 UTC NOAA

Cuenca / Mariscal Lamar, Ecuador (SECU) 02-53S 078-59W 2531M
Apr 24, 2019 - 10:00 PM EDT / 2019.04.25 0200 UTC
Wind: from the ENE (070 degrees) at 3 MPH (3 KT):0
Visibility: greater than 7 mile(s):0
Sky conditions: overcast
Weather: light rain
Temperature: 57 F (14 C)
Dew Point: 55 F (13 C)
Relative Humidity: 93%
Pressure (altimeter): 30.36 in. Hg (1028 hPa)
ob: SECU 250200Z 07003KT 9999 -RA OVC030 14/13 Q1028
cycle: 2

Station Type Date Time Source
SECU TAF 2019/04/02 18:03 UTC NOAA

TAF SECU 021640Z 0218/0318 16008KT 9999 SCT033 SCT100
TEMPO 0221/0224 SHRA BKN030TCU BKN100
FM030000 05004KT 9999 RA BKN033 OVC100
FM030500 VRB03KT 9999 FEW008 BKN030 BKN100
FM031500 16005KT 9999 SCT030 SCT100 TX21/0219Z TN12/0310Z

Example: see airport list